createdAt,value
2023-06-22T00:00:28.333Z,16.02
2023-06-22T00:02:56.609Z,14.15
2023-06-22T00:05:24.301Z,16.48
2023-06-22T00:07:51.816Z,14.93
2023-06-22T00:10:19.646Z,14.48
2023-06-22T00:12:47.211Z,18.02
2023-06-22T00:15:14.801Z,14.70
2023-06-22T00:17:42.769Z,16.90
2023-06-22T00:20:11.411Z,13.17
2023-06-22T00:22:40.229Z,14.80
2023-06-22T00:25:08.747Z,14.90
2023-06-22T00:27:37.178Z,16.17
2023-06-22T00:30:08.185Z,13.43
2023-06-22T00:32:36.150Z,16.83
2023-06-22T00:35:04.076Z,13.50
2023-06-22T00:37:31.623Z,15.20
2023-06-22T00:40:00.327Z,13.40
2023-06-22T00:42:27.872Z,13.65
2023-06-22T00:44:55.620Z,19.53
2023-06-22T00:47:25.540Z,12.40
2023-06-22T00:49:53.615Z,13.00
2023-06-22T00:52:28.288Z,15.65
2023-06-22T00:54:58.728Z,13.85
2023-06-22T00:57:29.220Z,14.27
2023-06-22T00:59:57.449Z,17.37
2023-06-22T01:02:25.288Z,14.25
2023-06-22T01:04:53.012Z,14.25
2023-06-22T01:07:21.557Z,12.37
2023-06-22T01:09:59.126Z,13.97
2023-06-22T01:12:31.896Z,12.95
2023-06-22T01:15:11.657Z,13.40
2023-06-22T01:17:44.234Z,11.98
2023-06-22T01:20:14.423Z,12.35
2023-06-22T01:23:10.304Z,11.77
2023-06-22T01:25:48.976Z,11.65
2023-06-22T01:28:38.661Z,12.40
2023-06-22T01:31:07.865Z,11.12
2023-06-22T01:33:40.365Z,10.52
2023-06-22T01:36:08.442Z,12.60
2023-06-22T01:38:38.345Z,12.95
2023-06-22T01:41:07.120Z,13.32
2023-06-22T01:43:36.868Z,16.48
2023-06-22T01:46:05.389Z,13.13
2023-06-22T01:48:33.701Z,12.90
2023-06-22T01:51:04.187Z,13.73
2023-06-22T01:53:32.313Z,13.00
2023-06-22T01:55:59.960Z,11.68
2023-06-22T01:58:32.333Z,14.30
2023-06-22T02:01:11.893Z,15.03
2023-06-22T02:03:47.760Z,12.30
2023-06-22T02:06:22.003Z,10.35
2023-06-22T02:08:53.107Z,16.25
2023-06-22T02:11:22.943Z,12.63
2023-06-22T02:13:52.025Z,10.97
2023-06-22T02:16:20.456Z,12.27
2023-06-22T02:18:52.001Z,13.95
2023-06-22T02:21:20.280Z,13.70
2023-06-22T02:23:48.413Z,20.58
2023-06-22T02:26:18.112Z,18.43
2023-06-22T02:28:47.164Z,15.43
2023-06-22T02:31:19.345Z,13.10
2023-06-22T02:33:47.312Z,24.73
2023-06-22T02:36:15.314Z,25.60
2023-06-22T02:38:49.189Z,25.70
2023-06-22T02:41:20.228Z,15.77
2023-06-22T02:43:49.544Z,13.43
2023-06-22T02:46:20.980Z,14.57
2023-06-22T02:48:49.008Z,11.12
2023-06-22T02:51:16.998Z,14.03
2023-06-22T02:53:48.335Z,16.85
2023-06-22T02:56:17.005Z,13.05
2023-06-22T02:58:45.098Z,11.95
2023-06-22T03:01:15.072Z,11.77
2023-06-22T03:03:43.504Z,11.20
2023-06-22T03:06:15.378Z,12.77
2023-06-22T03:08:43.162Z,13.50
2023-06-22T03:11:11.281Z,12.15
2023-06-22T03:13:38.875Z,13.00
2023-06-22T03:16:07.249Z,12.90
2023-06-22T03:18:35.114Z,13.05
2023-06-22T03:21:03.548Z,12.88
2023-06-22T03:23:32.530Z,14.63
2023-06-22T03:26:00.490Z,12.60
2023-06-22T03:28:28.077Z,11.53
2023-06-22T03:30:55.800Z,14.25
2023-06-22T03:33:24.059Z,13.50
2023-06-22T03:35:51.596Z,12.82
2023-06-22T03:38:19.246Z,13.38
2023-06-22T03:40:47.535Z,13.03
2023-06-22T03:43:15.125Z,13.82
2023-06-22T03:45:42.830Z,13.35
2023-06-22T03:48:10.733Z,13.88
2023-06-22T03:50:38.432Z,18.52
2023-06-22T03:53:06.120Z,17.63
2023-06-22T03:55:35.533Z,15.88
2023-06-22T03:58:06.816Z,14.25
2023-06-22T04:00:34.763Z,15.07
2023-06-22T04:03:02.686Z,18.50
2023-06-22T04:05:30.326Z,15.93
2023-06-22T04:07:57.864Z,15.48
2023-06-22T04:10:25.739Z,16.98
2023-06-22T04:12:53.377Z,15.20
2023-06-22T04:15:20.913Z,14.80
2023-06-22T04:17:48.989Z,13.47
2023-06-22T04:20:16.570Z,14.18
2023-06-22T04:22:44.286Z,15.73
2023-06-22T04:25:12.189Z,13.98
2023-06-22T04:27:41.455Z,15.32
2023-06-22T04:30:09.438Z,18.50
2023-06-22T04:32:37.443Z,16.50
2023-06-22T04:35:08.414Z,15.98
2023-06-22T04:37:35.989Z,17.52
2023-06-22T04:40:05.996Z,15.48
2023-06-22T04:42:35.963Z,19.00
2023-06-22T04:45:04.778Z,15.63
2023-06-22T04:47:32.379Z,18.55
2023-06-22T04:49:59.976Z,16.83
2023-06-22T04:52:27.937Z,16.83
2023-06-22T04:54:58.836Z,15.67
2023-06-22T04:57:33.396Z,18.73
2023-06-22T05:00:13.270Z,19.42
2023-06-22T05:02:42.155Z,18.55
2023-06-22T05:05:14.624Z,18.55
2023-06-22T05:07:53.858Z,17.90
2023-06-22T05:10:21.790Z,16.45
2023-06-22T05:12:49.376Z,19.25
2023-06-22T05:15:17.059Z,20.17
2023-06-22T05:17:46.442Z,19.50
2023-06-22T05:20:14.214Z,19.97
2023-06-22T05:22:42.148Z,24.12
2023-06-22T05:25:11.698Z,24.80
2023-06-22T05:27:40.680Z,20.30
2023-06-22T05:30:09.107Z,19.80
2023-06-22T05:32:37.865Z,21.67
2023-06-22T05:35:06.211Z,24.17
2023-06-22T05:37:33.930Z,20.95
2023-06-22T05:40:01.915Z,20.42
2023-06-22T05:42:29.590Z,20.33
2023-06-22T05:44:57.082Z,19.53
2023-06-22T05:47:25.087Z,20.45
2023-06-22T05:49:52.606Z,24.20
2023-06-22T05:52:20.105Z,18.48
2023-06-22T05:54:47.909Z,17.70
2023-06-22T05:57:15.412Z,16.67
2023-06-22T05:59:42.871Z,20.83
2023-06-22T06:02:10.828Z,17.62
2023-06-22T06:04:38.645Z,18.95
2023-06-22T06:07:06.270Z,17.55
2023-06-22T06:09:33.816Z,19.43
2023-06-22T06:12:04.093Z,21.20
2023-06-22T06:14:31.624Z,18.67
2023-06-22T06:16:59.163Z,21.30
2023-06-22T06:19:27.035Z,18.95
2023-06-22T06:21:54.657Z,19.07
2023-06-22T06:24:22.277Z,17.10
2023-06-22T06:26:50.154Z,19.90
2023-06-22T06:29:17.729Z,16.05
2023-06-22T06:31:45.376Z,18.12
2023-06-22T06:34:13.363Z,16.23
2023-06-22T06:36:40.902Z,17.02
2023-06-22T06:39:08.489Z,21.02
2023-06-22T06:41:36.372Z,17.80
2023-06-22T06:44:04.074Z,17.65
2023-06-22T06:46:31.698Z,19.93
2023-06-22T06:48:59.724Z,16.05
2023-06-22T06:51:27.342Z,18.00
2023-06-22T06:53:54.865Z,22.73
2023-06-22T06:56:22.963Z,23.87
2023-06-22T06:58:51.671Z,19.30
2023-06-22T07:01:22.567Z,18.50
2023-06-22T07:03:50.858Z,18.62
2023-06-22T07:06:18.604Z,22.13
2023-06-22T07:08:46.523Z,16.80
2023-06-22T07:11:14.410Z,18.23
2023-06-22T07:13:42.011Z,16.90
2023-06-22T07:16:09.520Z,18.90
2023-06-22T07:18:37.346Z,15.80
2023-06-22T07:21:07.602Z,16.87
2023-06-22T07:23:35.194Z,19.63
2023-06-22T07:26:03.084Z,17.33
2023-06-22T07:28:38.235Z,17.55
2023-06-22T07:31:06.133Z,18.12
2023-06-22T07:33:33.666Z,17.90
2023-06-22T07:36:01.279Z,20.30
2023-06-22T07:38:29.258Z,17.40
2023-06-22T07:40:56.990Z,20.75
2023-06-22T07:43:24.557Z,17.48
2023-06-22T07:45:56.410Z,16.75
2023-06-22T07:48:24.370Z,18.40
2023-06-22T07:50:52.272Z,17.48
2023-06-22T07:53:19.872Z,18.42
2023-06-22T07:55:49.810Z,19.40
2023-06-22T07:58:20.155Z,17.75
2023-06-22T08:00:48.386Z,18.97
2023-06-22T08:03:16.650Z,19.25
2023-06-22T08:05:44.230Z,17.27
2023-06-22T08:08:11.732Z,18.35
2023-06-22T08:10:39.588Z,18.33
2023-06-22T08:13:07.198Z,18.37
2023-06-22T08:15:34.972Z,18.17
2023-06-22T08:18:03.062Z,17.67
2023-06-22T08:20:30.817Z,17.85
2023-06-22T08:23:01.433Z,17.73
2023-06-22T08:25:29.610Z,17.30
2023-06-22T08:27:57.506Z,22.92
2023-06-22T08:30:25.115Z,20.67
2023-06-22T08:32:53.106Z,18.65
2023-06-22T08:35:20.755Z,19.55
2023-06-22T08:37:53.011Z,22.33
2023-06-22T08:40:22.065Z,17.02
2023-06-22T08:42:50.443Z,16.70
2023-06-22T08:45:18.081Z,17.75
2023-06-22T08:47:46.006Z,16.92
2023-06-22T08:50:14.252Z,16.87
2023-06-22T08:52:42.692Z,16.17
2023-06-22T08:55:11.316Z,18.33
2023-06-22T08:57:40.293Z,17.87
2023-06-22T09:00:19.209Z,17.17
2023-06-22T09:02:48.837Z,18.80
2023-06-22T09:05:17.336Z,17.48
2023-06-22T09:07:45.119Z,17.27
2023-06-22T09:10:13.220Z,17.02
2023-06-22T09:12:41.110Z,17.30
2023-06-22T09:15:15.669Z,16.37
2023-06-22T09:17:47.825Z,20.10
2023-06-22T09:20:16.830Z,16.87
2023-06-22T09:22:44.841Z,18.08
2023-06-22T09:25:12.570Z,17.12
2023-06-22T09:27:40.186Z,17.60
2023-06-22T09:30:08.826Z,16.02
2023-06-22T09:32:36.545Z,17.33
2023-06-22T09:35:13.427Z,17.37
2023-06-22T09:37:42.012Z,16.65
2023-06-22T09:40:11.742Z,15.67
2023-06-22T09:42:40.305Z,17.60
2023-06-22T09:45:08.733Z,16.12
2023-06-22T09:47:36.365Z,15.98
2023-06-22T09:50:04.138Z,14.57
2023-06-22T09:52:43.425Z,15.37
2023-06-22T09:55:17.266Z,15.82
2023-06-22T09:57:45.423Z,15.10
2023-06-22T10:00:16.835Z,20.33
2023-06-22T10:02:45.720Z,16.05
2023-06-22T10:05:13.830Z,17.57
2023-06-22T10:07:44.729Z,17.35
2023-06-22T10:10:13.763Z,17.60
2023-06-22T10:12:55.564Z,18.33
2023-06-22T10:15:23.479Z,17.48
2023-06-22T10:17:51.260Z,17.87
2023-06-22T10:20:19.761Z,18.08
2023-06-22T10:22:47.722Z,17.00
2023-06-22T10:25:15.366Z,18.60
2023-06-22T10:27:43.229Z,17.50
2023-06-22T10:30:15.932Z,17.20
2023-06-22T10:32:44.695Z,17.45
2023-06-22T10:35:26.063Z,17.27
2023-06-22T10:37:53.917Z,17.77
2023-06-22T10:40:21.884Z,17.77
2023-06-22T10:42:51.269Z,17.97
2023-06-22T10:45:18.912Z,18.35
2023-06-22T10:47:46.849Z,19.42
2023-06-22T10:50:14.600Z,17.98
2023-06-22T10:52:45.034Z,16.42
2023-06-22T10:55:12.947Z,17.87
2023-06-22T10:57:44.848Z,17.90
2023-06-22T11:00:13.648Z,16.27
2023-06-22T11:02:41.694Z,16.92
2023-06-22T11:05:09.724Z,17.58
2023-06-22T11:10:13.088Z,18.00
2023-06-22T11:12:40.965Z,16.33
2023-06-22T11:15:09.464Z,18.80
2023-06-22T11:17:37.103Z,16.75
2023-06-22T11:20:11.782Z,16.93
2023-06-22T11:22:40.597Z,17.58
2023-06-22T11:25:09.439Z,15.35
2023-06-22T11:27:37.078Z,17.15
2023-06-22T11:30:05.172Z,20.62
2023-06-22T11:32:33.254Z,17.77
2023-06-22T11:35:01.000Z,17.87
2023-06-22T11:37:28.604Z,17.37
2023-06-22T11:40:06.088Z,16.70
2023-06-22T11:42:35.455Z,16.75
2023-06-22T11:45:06.001Z,16.23
2023-06-22T11:47:33.588Z,20.25
2023-06-22T11:50:01.161Z,18.02
2023-06-22T11:52:29.036Z,17.27
2023-06-22T11:54:56.602Z,17.37
2023-06-22T11:57:24.154Z,16.30
2023-06-22T11:59:52.032Z,16.90
2023-06-22T12:02:19.700Z,16.55
2023-06-22T12:04:47.752Z,16.85
2023-06-22T12:07:15.272Z,16.27
2023-06-22T12:09:42.843Z,17.40
2023-06-22T12:12:11.149Z,16.60
2023-06-22T12:14:38.728Z,17.02
2023-06-22T12:17:06.384Z,15.50
2023-06-22T12:19:34.347Z,15.15
2023-06-22T12:22:01.920Z,16.50
2023-06-22T12:24:30.475Z,18.50
2023-06-22T12:26:58.379Z,17.05
2023-06-22T12:29:25.992Z,16.27
2023-06-22T12:31:53.701Z,16.83
2023-06-22T12:34:21.644Z,16.87
2023-06-22T12:36:49.835Z,16.67
2023-06-22T12:39:17.423Z,16.33
2023-06-22T12:41:45.318Z,16.10
2023-06-22T12:44:12.934Z,15.27
2023-06-22T12:46:40.525Z,15.93
2023-06-22T12:49:08.370Z,14.98
2023-06-22T12:51:41.334Z,15.75
2023-06-22T12:54:09.350Z,17.60
2023-06-22T12:56:37.327Z,17.50
2023-06-22T12:59:05.940Z,17.83
2023-06-22T13:01:33.825Z,17.40
2023-06-22T13:04:01.441Z,20.08
2023-06-22T13:06:29.017Z,17.67
2023-06-22T13:09:19.947Z,16.23
2023-06-22T13:11:44.528Z,15.47
2023-06-22T13:14:12.485Z,17.55
2023-06-22T13:16:40.059Z,15.70
2023-06-22T13:19:08.689Z,15.55
2023-06-22T13:21:36.742Z,16.98
2023-06-22T13:24:04.739Z,14.70
2023-06-22T13:26:32.354Z,17.62
2023-06-22T13:29:00.241Z,15.50
2023-06-22T13:31:27.865Z,15.60
2023-06-22T13:33:55.486Z,15.30
2023-06-22T13:36:24.491Z,16.00
2023-06-22T13:38:52.208Z,14.43
2023-06-22T13:41:19.823Z,15.48
2023-06-22T13:43:47.807Z,15.45
2023-06-22T13:46:15.435Z,16.85
2023-06-22T13:48:43.043Z,14.97
2023-06-22T13:51:10.917Z,16.65
2023-06-22T13:53:38.470Z,15.52
2023-06-22T13:56:06.006Z,15.43
2023-06-22T13:58:33.901Z,15.68
2023-06-22T14:01:01.463Z,16.57
2023-06-22T14:03:29.339Z,16.30
2023-06-22T14:05:57.707Z,18.58
2023-06-22T14:08:41.067Z,16.77
2023-06-22T14:11:10.617Z,19.83
2023-06-22T14:13:38.239Z,15.33
2023-06-22T14:16:07.065Z,17.77
2023-06-22T14:18:34.963Z,17.33
2023-06-22T14:21:02.618Z,19.65
2023-06-22T14:23:30.176Z,15.38
2023-06-22T14:25:58.069Z,16.27
2023-06-22T14:28:25.612Z,15.57
2023-06-22T14:30:53.245Z,16.77
2023-06-22T14:33:21.124Z,18.02
2023-06-22T14:35:48.872Z,13.62
2023-06-22T14:38:16.420Z,18.03
2023-06-22T14:41:05.774Z,15.48
2023-06-22T14:43:31.720Z,15.70
2023-06-22T14:45:59.742Z,16.58
2023-06-22T14:48:27.449Z,14.85
2023-06-22T14:50:56.353Z,16.67
2023-06-22T14:53:24.588Z,15.50
2023-06-22T14:55:52.177Z,16.92
2023-06-22T14:58:19.689Z,16.40
2023-06-22T15:00:47.654Z,15.65
2023-06-22T15:03:20.008Z,14.47
2023-06-22T15:05:48.159Z,15.30
2023-06-22T15:08:15.843Z,16.27
2023-06-22T15:10:43.643Z,15.23
2023-06-22T15:13:11.553Z,16.98
2023-06-22T15:15:39.426Z,17.80
2023-06-22T15:18:07.372Z,16.25
2023-06-22T15:20:35.368Z,16.05
2023-06-22T15:23:03.119Z,17.12
2023-06-22T15:25:30.684Z,14.45
2023-06-22T15:27:58.724Z,13.77
2023-06-22T15:30:26.501Z,18.37
2023-06-22T15:32:54.115Z,14.90
2023-06-22T15:35:23.809Z,15.20
2023-06-22T15:37:52.550Z,18.80
2023-06-22T15:40:20.232Z,15.10
2023-06-22T15:42:53.570Z,14.57
2023-06-22T15:45:21.590Z,16.08
2023-06-22T15:47:49.527Z,19.48
2023-06-22T15:50:17.175Z,18.30
2023-06-22T15:52:51.215Z,13.20
2023-06-22T15:55:22.429Z,13.73
2023-06-22T15:57:50.453Z,17.35
2023-06-22T16:00:19.821Z,15.25
2023-06-22T16:02:48.447Z,14.75
2023-06-22T16:05:16.343Z,18.57
2023-06-22T16:07:44.384Z,15.00
2023-06-22T16:10:14.247Z,14.63
2023-06-22T16:12:44.631Z,15.82
2023-06-22T16:15:12.616Z,16.35
2023-06-22T16:17:40.303Z,15.53
2023-06-22T16:20:09.553Z,14.23
2023-06-22T16:22:37.505Z,18.02
2023-06-22T16:25:05.375Z,18.33
2023-06-22T16:27:33.559Z,15.50
2023-06-22T16:30:01.528Z,13.53
2023-06-22T16:32:29.196Z,15.23
2023-06-22T16:34:56.790Z,18.90
2023-06-22T16:37:25.404Z,14.35
2023-06-22T16:39:53.463Z,14.93
2023-06-22T16:42:21.184Z,14.63
2023-06-22T16:44:49.190Z,13.77
2023-06-22T16:47:16.821Z,16.00
2023-06-22T16:49:44.521Z,15.65
2023-06-22T16:52:12.413Z,18.62
2023-06-22T16:54:56.642Z,13.03
2023-06-22T16:57:27.869Z,17.92
2023-06-22T16:59:58.380Z,13.32
2023-06-22T17:02:27.297Z,12.95
2023-06-22T17:04:56.771Z,17.08
2023-06-22T17:07:27.779Z,12.93
2023-06-22T17:09:58.173Z,14.07
2023-06-22T17:12:26.352Z,14.02
2023-06-22T17:14:56.094Z,15.20
2023-06-22T17:17:27.068Z,14.60
2023-06-22T17:19:54.792Z,13.43
2023-06-22T17:22:22.442Z,15.63
2023-06-22T17:24:52.371Z,14.50
2023-06-22T17:27:29.578Z,14.90
2023-06-22T17:30:10.986Z,17.37
2023-06-22T17:32:38.501Z,14.50
2023-06-22T17:35:06.692Z,12.63
2023-06-22T17:37:49.893Z,17.75
2023-06-22T17:40:19.778Z,15.00
2023-06-22T17:42:47.992Z,16.33
2023-06-22T17:45:23.610Z,14.17
2023-06-22T17:47:53.684Z,14.77
2023-06-22T17:50:25.986Z,14.98
2023-06-22T17:52:57.036Z,14.65
2023-06-22T17:55:25.679Z,15.38
2023-06-22T17:57:58.021Z,17.97
2023-06-22T18:00:27.375Z,12.95
2023-06-22T18:02:57.140Z,19.35
2023-06-22T18:05:35.119Z,13.27
2023-06-22T18:08:07.520Z,17.42
2023-06-22T18:10:37.208Z,13.13
2023-06-22T18:13:05.927Z,12.02
2023-06-22T18:15:35.422Z,14.95
2023-06-22T18:18:04.140Z,16.90
2023-06-22T18:20:33.493Z,13.77
2023-06-22T18:23:01.479Z,13.27
2023-06-22T18:25:32.689Z,15.25
2023-06-22T18:28:01.497Z,15.57
2023-06-22T18:30:29.515Z,14.30
2023-06-22T18:32:57.631Z,13.75
2023-06-22T18:35:25.732Z,15.13
2023-06-22T18:37:53.662Z,16.98
2023-06-22T18:40:21.377Z,14.60
2023-06-22T18:42:49.653Z,15.60
2023-06-22T18:45:28.797Z,15.55
2023-06-22T18:48:04.992Z,15.00
2023-06-22T18:50:45.292Z,14.55
2023-06-22T18:53:29.085Z,16.92
2023-06-22T18:56:14.369Z,15.27
2023-06-22T18:58:42.347Z,17.90
2023-06-22T19:01:17.047Z,20.67
2023-06-22T19:03:49.839Z,15.45
2023-06-22T19:06:51.683Z,17.85
2023-06-22T19:09:20.415Z,19.45
2023-06-22T19:11:49.495Z,21.67
2023-06-22T19:14:22.039Z,14.80
2023-06-22T19:16:58.910Z,15.18
2023-06-22T19:19:26.506Z,16.58
2023-06-22T19:22:01.630Z,17.27
2023-06-22T19:24:31.111Z,18.62
2023-06-22T19:26:59.420Z,16.17
2023-06-22T19:29:28.305Z,16.67
2023-06-22T19:31:57.470Z,14.10
2023-06-22T19:34:26.689Z,16.20
2023-06-22T19:36:54.326Z,15.23
2023-06-22T19:39:22.153Z,16.27
2023-06-22T19:41:50.116Z,14.43
2023-06-22T19:44:17.802Z,14.77
2023-06-22T19:46:47.106Z,14.55
2023-06-22T19:49:17.328Z,16.42
2023-06-22T19:51:44.887Z,13.53
2023-06-22T19:54:16.710Z,15.15
2023-06-22T19:56:45.371Z,15.43
2023-06-22T19:59:21.533Z,15.43
2023-06-22T20:01:49.451Z,20.65
2023-06-22T20:04:17.358Z,15.60
2023-06-22T20:07:04.422Z,16.33
2023-06-22T20:09:33.223Z,16.05
2023-06-22T20:12:01.128Z,19.90
2023-06-22T20:14:33.934Z,18.52
2023-06-22T20:17:03.702Z,15.57
2023-06-22T20:19:42.200Z,15.63
2023-06-22T20:22:11.631Z,18.35
2023-06-22T20:24:42.478Z,16.40
2023-06-22T20:27:13.550Z,20.60
2023-06-22T20:29:44.405Z,17.00
2023-06-22T20:32:14.793Z,15.93
2023-06-22T20:34:47.505Z,18.08
2023-06-22T20:37:29.461Z,17.25
2023-06-22T20:39:57.180Z,18.75
2023-06-22T20:42:25.220Z,14.60
2023-06-22T20:44:52.925Z,17.33
2023-06-22T20:47:23.483Z,14.68
2023-06-22T20:49:51.776Z,21.25
2023-06-22T20:52:19.745Z,18.58
2023-06-22T20:54:47.389Z,19.53
2023-06-22T20:57:15.427Z,15.52
2023-06-22T20:59:43.204Z,21.70
2023-06-22T21:02:11.349Z,15.85
2023-06-22T21:04:40.488Z,20.15
2023-06-22T21:07:08.095Z,14.77
2023-06-22T21:09:50.162Z,14.70
2023-06-22T21:12:20.515Z,15.57
2023-06-22T21:14:48.375Z,17.83
2023-06-22T21:17:17.400Z,16.80
2023-06-22T21:19:45.469Z,20.00
2023-06-22T21:22:13.051Z,15.70
2023-06-22T21:24:43.550Z,23.05
2023-06-22T21:27:13.365Z,15.98
2023-06-22T21:29:40.962Z,17.70
2023-06-22T21:32:09.026Z,20.53
2023-06-22T21:34:36.847Z,17.35
2023-06-22T21:37:05.040Z,18.70
2023-06-22T21:39:36.678Z,17.02
2023-06-22T21:42:04.977Z,17.73
2023-06-22T21:44:32.536Z,17.60
2023-06-22T21:47:00.194Z,17.02
2023-06-22T21:49:28.047Z,15.90
2023-06-22T21:51:55.619Z,16.92
2023-06-22T21:54:23.140Z,19.58
2023-06-22T21:56:50.942Z,22.53
2023-06-22T21:59:18.583Z,19.80
2023-06-22T22:01:46.229Z,17.77
2023-06-22T22:04:16.053Z,20.15
2023-06-22T22:06:43.757Z,20.12
2023-06-22T22:09:11.254Z,17.93
2023-06-22T22:11:39.096Z,17.73
2023-06-22T22:14:09.753Z,22.42
2023-06-22T22:16:37.355Z,24.00
2023-06-22T22:19:05.293Z,19.17
2023-06-22T22:21:33.143Z,21.97
2023-06-22T22:24:00.802Z,17.35
2023-06-22T22:26:29.090Z,17.70
2023-06-22T22:28:56.660Z,17.12
2023-06-22T22:31:24.191Z,17.05
2023-06-22T22:33:52.125Z,17.97
2023-06-22T22:36:19.899Z,16.42
2023-06-22T22:38:47.514Z,18.25
2023-06-22T22:41:15.364Z,17.08
2023-06-22T22:43:43.044Z,18.48
2023-06-22T22:46:10.684Z,18.23
2023-06-22T22:48:38.591Z,18.25
2023-06-22T22:51:06.744Z,18.80
2023-06-22T22:53:34.960Z,20.70
2023-06-22T22:56:03.698Z,18.55
2023-06-22T22:58:31.369Z,21.47
2023-06-22T23:01:00.212Z,18.83
2023-06-22T23:03:28.195Z,19.40
2023-06-22T23:05:57.209Z,18.12
2023-06-22T23:08:25.032Z,19.92
2023-06-22T23:10:53.056Z,23.27
2023-06-22T23:13:20.634Z,18.70
2023-06-22T23:15:48.266Z,21.10
2023-06-22T23:18:16.169Z,20.08
2023-06-22T23:20:43.935Z,21.08
2023-06-22T23:23:11.493Z,22.73
2023-06-22T23:25:39.580Z,20.60
2023-06-22T23:28:07.159Z,21.17
2023-06-22T23:30:35.803Z,18.95
2023-06-22T23:33:03.769Z,22.20
2023-06-22T23:35:31.643Z,23.57
2023-06-22T23:37:59.450Z,22.83
2023-06-22T23:40:27.292Z,22.13
2023-06-22T23:42:54.787Z,22.02
2023-06-22T23:45:22.914Z,24.33
2023-06-22T23:47:52.106Z,24.33
2023-06-22T23:50:19.726Z,27.92
2023-06-22T23:52:50.437Z,21.67
2023-06-22T23:55:19.846Z,23.08
2023-06-22T23:57:47.400Z,25.55
